createdAt,value
2023-01-05T08:36:25.818Z,89.26
2023-01-05T08:37:25.783Z,88.51
2023-01-05T08:38:25.773Z,89.06
2023-01-05T08:39:25.761Z,88.55
2023-01-05T08:40:25.771Z,88.65
2023-01-05T08:41:25.744Z,88.85
2023-01-05T08:42:25.723Z,88.82
2023-01-05T08:43:25.718Z,88.82
2023-01-05T08:44:25.701Z,88.20
2023-01-05T08:45:25.723Z,88.65
2023-01-05T08:46:25.765Z,88.20
2023-01-05T08:47:28.501Z,88.10
2023-01-05T08:48:25.645Z,88.31
2023-01-05T08:49:25.636Z,88.20
2023-01-05T08:50:25.634Z,88.10
2023-01-05T08:51:25.639Z,88.31
2023-01-05T08:52:25.647Z,87.90
2023-01-05T08:53:25.619Z,88.20
2023-01-05T08:54:25.588Z,87.38
2023-01-05T08:55:25.568Z,87.79
2023-01-05T08:56:25.594Z,87.65
2023-01-05T08:57:25.571Z,87.79
2023-01-05T08:58:25.552Z,87.35
2023-01-05T08:59:25.559Z,87.65
2023-01-05T09:00:25.571Z,87.18
2023-01-05T09:01:25.662Z,86.83
2023-01-05T09:02:26.407Z,87.29
2023-01-05T09:03:25.607Z,87.14
2023-01-05T09:04:25.485Z,87.45
2023-01-05T09:05:25.464Z,87.04
2023-01-05T09:06:25.464Z,87.14
2023-01-05T09:07:25.447Z,87.14
2023-01-05T09:08:25.438Z,87.35
2023-01-05T09:09:25.430Z,87.65
2023-01-05T09:10:25.418Z,87.24
2023-01-05T09:11:25.416Z,87.14
2023-01-05T09:12:29.265Z,87.35
2023-01-05T09:13:26.358Z,86.53
2023-01-05T09:14:25.373Z,87.14
2023-01-05T09:15:25.337Z,86.43
2023-01-05T09:16:49.514Z,86.53
2023-01-05T09:17:26.426Z,86.73
2023-01-05T09:18:25.327Z,86.83
2023-01-05T09:19:25.306Z,86.73
2023-01-05T09:20:25.309Z,86.53
2023-01-05T09:21:25.267Z,86.53
2023-01-05T09:22:25.292Z,86.53
2023-01-05T09:23:25.269Z,86.83
2023-01-05T09:24:25.272Z,86.83
2023-01-05T09:25:25.230Z,86.83
2023-01-05T09:26:25.221Z,87.04
2023-01-05T09:27:25.236Z,86.94
2023-01-05T09:28:25.196Z,86.63
2023-01-05T09:29:25.182Z,86.53
2023-01-05T09:30:25.183Z,87.24
2023-01-05T09:31:25.332Z,86.73
2023-01-05T09:32:25.164Z,87.14
2023-01-05T09:33:25.131Z,87.00
2023-01-05T09:34:25.139Z,86.69
2023-01-05T09:35:25.109Z,86.29
2023-01-05T09:36:25.103Z,86.39
2023-01-05T09:37:25.157Z,86.29
2023-01-05T09:38:25.117Z,86.18
2023-01-05T09:39:25.077Z,86.69
2023-01-05T09:40:25.197Z,86.35
2023-01-05T09:41:25.043Z,86.04
2023-01-05T09:42:25.049Z,85.63
2023-01-05T09:43:25.018Z,85.02
2023-01-05T09:44:25.023Z,85.53
2023-01-05T09:45:24.997Z,85.49
2023-01-05T09:46:25.072Z,85.49
2023-01-05T09:47:25.005Z,85.60
2023-01-05T09:48:24.987Z,84.88
2023-01-05T09:49:24.946Z,84.47
2023-01-05T09:50:24.957Z,84.47
2023-01-05T09:51:24.940Z,84.88
2023-01-05T09:52:24.939Z,84.47
2023-01-05T09:53:24.918Z,84.88
2023-01-05T09:54:24.901Z,84.78
2023-01-05T09:55:24.941Z,84.47
2023-01-05T09:56:58.980Z,85.08
2023-01-05T09:57:25.887Z,84.72
2023-01-05T09:58:29.650Z,84.47
2023-01-05T09:59:25.848Z,84.58
2023-01-05T10:00:24.829Z,84.67
2023-01-05T10:01:24.851Z,84.67
2023-01-05T10:02:24.832Z,84.17
2023-01-05T10:04:01.801Z,84.37
2023-01-05T10:04:30.611Z,85.28
2023-01-05T10:05:25.871Z,85.28
2023-01-05T10:06:24.866Z,85.69
2023-01-05T10:07:24.770Z,84.43
2023-01-05T10:08:24.787Z,84.67
2023-01-05T10:09:24.725Z,84.74
2023-01-05T10:10:30.221Z,85.08
2023-01-05T10:11:25.712Z,84.88
2023-01-05T10:12:24.861Z,84.84
2023-01-05T10:13:24.680Z,84.33
2023-01-05T10:14:24.698Z,84.67
2023-01-05T10:15:24.664Z,84.53
2023-01-05T10:16:29.295Z,83.51
2023-01-05T10:17:43.256Z,83.51
2023-01-05T10:18:25.631Z,83.72
2023-01-05T10:19:24.614Z,83.62
2023-01-05T10:20:24.603Z,84.03
2023-01-05T10:21:24.606Z,84.03
2023-01-05T10:22:24.595Z,83.11
2023-01-05T10:23:24.570Z,83.11
2023-01-05T10:24:24.571Z,83.51
2023-01-05T10:25:24.539Z,83.51
2023-01-05T10:26:24.553Z,83.11
2023-01-05T10:27:25.843Z,83.62
2023-01-05T10:28:24.712Z,83.31
2023-01-05T10:29:24.513Z,83.21
2023-01-05T10:30:24.511Z,83.31
2023-01-05T10:31:24.543Z,83.11
2023-01-05T10:32:24.500Z,83.21
2023-01-05T10:33:29.504Z,83.62
2023-01-05T10:34:25.453Z,83.17
2023-01-05T10:35:59.713Z,83.42
2023-01-05T10:36:49.268Z,83.42
2023-01-05T10:37:25.419Z,82.76
2023-01-05T10:38:24.464Z,82.97
2023-01-05T10:39:24.382Z,82.87
2023-01-05T10:40:24.434Z,82.35
2023-01-05T10:41:24.378Z,81.74
2023-01-05T10:42:24.377Z,81.85
2023-01-05T10:43:24.349Z,82.26
2023-01-05T10:44:24.472Z,82.05
2023-01-05T10:45:24.311Z,81.85
2023-01-05T10:46:39.927Z,81.54
2023-01-05T10:47:25.364Z,81.74
2023-01-05T10:48:24.289Z,81.60
2023-01-05T10:49:24.287Z,81.85
2023-01-05T10:50:24.271Z,81.13
2023-01-05T10:51:24.259Z,81.54
2023-01-05T10:52:24.285Z,81.60
2023-01-05T10:53:24.219Z,81.20
2023-01-05T10:54:24.230Z,80.83
2023-01-05T10:55:24.218Z,81.51
2023-01-05T10:56:24.212Z,81.54
2023-01-05T10:57:26.636Z,81.34
2023-01-05T10:58:25.182Z,81.54
2023-01-05T10:59:24.231Z,80.73
2023-01-05T11:00:24.271Z,80.83
2023-01-05T11:01:24.339Z,81.30
2023-01-05T11:02:24.386Z,81.40
2023-01-05T11:03:39.922Z,82.01
2023-01-05T11:04:33.728Z,81.91
2023-01-05T11:05:25.133Z,81.40
2023-01-05T11:06:24.096Z,81.30
2023-01-05T11:07:24.086Z,81.60
2023-01-05T11:08:24.074Z,81.10
2023-01-05T11:09:24.055Z,80.79
2023-01-05T11:10:24.046Z,80.69
2023-01-05T11:11:24.016Z,80.83
2023-01-05T11:12:24.020Z,80.42
2023-01-05T11:13:24.004Z,80.29
2023-01-05T11:14:24.002Z,80.18
2023-01-05T11:15:23.983Z,80.42
2023-01-05T11:16:24.179Z,80.49
2023-01-05T11:17:23.968Z,80.73
2023-01-05T11:18:23.942Z,80.29
2023-01-05T11:19:23.940Z,80.99
2023-01-05T11:20:23.931Z,81.10
2023-01-05T11:21:23.907Z,80.29
2023-01-05T11:22:23.907Z,79.88
2023-01-05T11:23:23.897Z,79.77
2023-01-05T11:24:23.873Z,79.68
2023-01-05T11:25:23.881Z,79.37
2023-01-05T11:26:23.870Z,79.43
2023-01-05T11:27:23.894Z,78.72
2023-01-05T11:28:23.840Z,78.92
2023-01-05T11:29:23.838Z,78.72
2023-01-05T11:30:23.803Z,79.27
2023-01-05T11:31:23.844Z,79.23
2023-01-05T11:32:23.938Z,79.23
2023-01-05T11:33:25.506Z,79.23
2023-01-05T11:34:23.803Z,78.62
2023-01-05T11:35:23.756Z,79.02
2023-01-05T11:36:23.757Z,79.19
2023-01-05T11:37:23.758Z,78.89
2023-01-05T11:38:23.731Z,77.87
2023-01-05T11:39:23.697Z,78.08
2023-01-05T11:40:23.691Z,77.87
2023-01-05T11:41:23.695Z,77.22
2023-01-05T11:42:26.109Z,77.02
2023-01-05T11:43:23.651Z,77.12
2023-01-05T11:44:23.656Z,76.95
2023-01-05T11:45:23.632Z,77.06
2023-01-05T11:46:23.681Z,76.65
2023-01-05T11:47:23.646Z,77.06
2023-01-05T11:48:23.741Z,77.16
2023-01-05T11:49:23.588Z,77.06
2023-01-05T11:50:23.594Z,76.14
2023-01-05T11:51:27.729Z,76.95
2023-01-05T11:52:23.564Z,76.99
2023-01-05T11:53:23.554Z,76.86
2023-01-05T11:54:23.552Z,77.16
2023-01-05T11:55:23.520Z,76.89
2023-01-05T11:56:23.527Z,77.06
2023-01-05T11:57:23.541Z,77.29
2023-01-05T11:58:23.543Z,77.60
2023-01-05T11:59:23.471Z,76.99
2023-01-05T12:00:23.511Z,77.29
2023-01-05T12:01:23.496Z,77.16
2023-01-05T12:02:23.532Z,76.99
2023-01-05T12:03:23.426Z,76.68
2023-01-05T12:04:23.558Z,76.79
2023-01-05T12:05:23.418Z,77.29
2023-01-05T12:06:23.413Z,77.20
2023-01-05T12:07:23.401Z,77.09
2023-01-05T12:08:23.385Z,76.99
2023-01-05T12:09:23.408Z,77.09
2023-01-05T12:10:23.374Z,77.06
2023-01-05T12:11:23.354Z,77.09
2023-01-05T12:12:23.351Z,76.95
2023-01-05T12:13:23.313Z,77.06
2023-01-05T12:14:23.316Z,77.16
2023-01-05T12:15:23.288Z,76.34
2023-01-05T12:16:23.355Z,76.86
2023-01-05T12:17:23.282Z,75.29
2023-01-05T12:18:23.312Z,74.88
2023-01-05T12:19:23.248Z,75.09
2023-01-05T12:20:23.380Z,75.05
2023-01-05T12:21:23.242Z,75.16
2023-01-05T12:22:23.229Z,75.56
2023-01-05T12:23:23.239Z,74.62
2023-01-05T12:24:23.185Z,73.80
2023-01-05T12:25:23.189Z,73.66
2023-01-05T12:26:23.165Z,72.61
2023-01-05T12:27:23.161Z,72.28
2023-01-05T12:28:39.668Z,71.53
2023-01-05T12:32:19.631Z,71.23
2023-01-05T12:34:24.095Z,71.00
2023-01-05T12:35:23.070Z,70.72
2023-01-05T12:36:23.178Z,71.33
2023-01-05T12:37:23.063Z,71.06
2023-01-05T12:38:23.056Z,71.47
2023-01-05T12:39:26.963Z,71.09
2023-01-05T12:40:24.030Z,71.60
2023-01-05T12:41:23.007Z,71.70
2023-01-05T12:42:22.995Z,71.47
2023-01-05T12:43:22.971Z,70.32
2023-01-05T12:44:22.963Z,69.71
2023-01-05T12:45:28.054Z,69.88
2023-01-05T12:46:23.980Z,69.95
2023-01-05T12:47:22.942Z,69.41
2023-01-05T12:48:22.926Z,69.10
2023-01-05T12:49:22.899Z,68.10
2023-01-05T12:50:23.517Z,67.99
2023-01-05T12:51:22.948Z,67.52
2023-01-05T12:52:22.989Z,68.30
2023-01-05T12:53:22.881Z,68.23
2023-01-05T12:54:22.863Z,68.36
2023-01-05T12:55:22.831Z,69.27
2023-01-05T12:56:22.854Z,69.61
2023-01-05T12:57:22.833Z,69.20
2023-01-05T12:58:22.812Z,69.03
2023-01-05T12:59:22.784Z,69.47
2023-01-05T13:00:22.795Z,70.08
2023-01-05T13:01:23.003Z,70.83
2023-01-05T13:02:22.896Z,71.64
2023-01-05T13:03:22.739Z,71.73
2023-01-05T13:04:26.712Z,71.67
2023-01-05T13:05:22.736Z,72.17
2023-01-05T13:06:22.720Z,72.82
2023-01-05T13:07:22.713Z,72.21
2023-01-05T13:08:22.846Z,72.41
2023-01-05T13:09:22.696Z,72.45
2023-01-05T13:10:22.668Z,72.75
2023-01-05T13:11:22.752Z,73.57
2023-01-05T13:12:22.676Z,73.33
2023-01-05T13:13:22.649Z,73.43
2023-01-05T13:14:22.631Z,73.53
2023-01-05T13:15:22.613Z,73.57
2023-01-05T13:16:22.767Z,74.38
2023-01-05T13:17:22.607Z,74.38
2023-01-05T13:18:22.645Z,74.18
2023-01-05T13:19:22.569Z,74.18
2023-01-05T13:20:22.551Z,74.99
2023-01-05T13:21:22.581Z,74.88
2023-01-05T13:22:22.543Z,74.88
2023-01-05T13:23:22.536Z,75.73
2023-01-05T13:24:22.674Z,74.88
2023-01-05T13:25:22.555Z,75.33
2023-01-05T13:26:22.489Z,74.99
2023-01-05T13:27:22.473Z,75.12
2023-01-05T13:28:22.473Z,75.02
2023-01-05T13:29:22.486Z,75.02
2023-01-05T13:30:22.453Z,75.33
2023-01-05T13:31:22.527Z,75.63
2023-01-05T13:32:22.436Z,75.33
2023-01-05T13:33:22.421Z,75.63
2023-01-05T13:34:22.401Z,76.04
2023-01-05T13:35:22.431Z,75.77
2023-01-05T13:36:22.372Z,76.86
2023-01-05T13:37:22.374Z,76.86
2023-01-05T13:38:22.371Z,76.25
2023-01-05T13:39:22.349Z,75.84
2023-01-05T13:40:22.469Z,76.25
2023-01-05T13:41:22.336Z,76.04
2023-01-05T13:42:22.298Z,76.75
2023-01-05T13:43:22.291Z,75.73
2023-01-05T13:44:22.293Z,76.28
2023-01-05T13:45:22.286Z,76.55
2023-01-05T13:46:22.363Z,76.79
2023-01-05T13:47:27.453Z,75.77
2023-01-05T13:48:33.749Z,76.38
2023-01-05T13:49:23.222Z,76.38
2023-01-05T13:50:22.218Z,76.59
2023-01-05T13:51:22.218Z,77.09
2023-01-05T13:52:22.203Z,76.79
2023-01-05T13:54:22.184Z,77.03
2023-01-05T13:55:26.308Z,76.92
2023-01-05T13:56:22.266Z,77.23
2023-01-05T13:57:22.226Z,77.33
2023-01-05T13:58:22.120Z,77.23
2023-01-05T13:59:34.511Z,77.47
2023-01-05T14:00:23.096Z,77.33
2023-01-05T14:01:22.091Z,78.15
2023-01-05T14:02:22.124Z,77.98
2023-01-05T14:03:22.065Z,78.08
2023-01-05T14:04:22.063Z,78.66
2023-01-05T14:05:22.070Z,78.49
2023-01-05T14:06:22.035Z,78.39
2023-01-05T14:07:22.020Z,78.59
2023-01-05T14:08:22.015Z,79.50
2023-01-05T14:09:21.990Z,78.73
2023-01-05T14:10:22.011Z,79.03
2023-01-05T14:11:21.969Z,79.44
2023-01-05T14:12:22.164Z,79.41
2023-01-05T14:13:21.956Z,79.24
2023-01-05T14:14:21.946Z,79.44
2023-01-05T14:15:21.924Z,80.16
2023-01-05T14:16:21.955Z,79.44
2023-01-05T14:17:21.912Z,79.85
2023-01-05T14:18:21.884Z,79.81
2023-01-05T14:19:21.889Z,79.54
2023-01-05T14:20:21.881Z,79.81
2023-01-05T14:21:21.855Z,80.05
2023-01-05T14:22:21.838Z,79.50
2023-01-05T14:23:21.830Z,79.75
2023-01-05T14:24:21.830Z,80.02
2023-01-05T14:25:21.828Z,79.91
2023-01-05T14:26:21.803Z,80.16
2023-01-05T14:27:21.795Z,80.02
2023-01-05T14:28:21.919Z,80.32
2023-01-05T14:29:21.761Z,79.91
2023-01-05T14:30:21.781Z,80.16
2023-01-05T14:31:21.819Z,79.41
2023-01-05T14:32:21.728Z,79.71
2023-01-05T14:33:21.716Z,79.50
2023-01-05T14:34:21.715Z,80.11
2023-01-05T14:35:21.704Z,80.02
2023-01-05T14:36:21.703Z,79.64
2023-01-05T14:37:21.698Z,79.81
2023-01-05T14:38:21.668Z,80.36
2023-01-05T14:39:21.659Z,80.05
2023-01-05T14:40:21.655Z,80.32
2023-01-05T14:41:23.355Z,80.73
2023-01-05T14:42:21.609Z,80.32
2023-01-05T14:43:21.649Z,80.11
2023-01-05T14:44:21.729Z,80.22
2023-01-05T14:45:21.599Z,80.56
2023-01-05T14:46:21.590Z,80.56
2023-01-05T14:47:21.575Z,80.66
2023-01-05T14:48:21.545Z,80.66
2023-01-05T14:49:21.545Z,80.73
2023-01-05T14:50:21.535Z,80.66
2023-01-05T14:51:21.526Z,80.73
2023-01-05T14:52:21.511Z,80.87
2023-01-05T14:53:21.499Z,80.77
2023-01-05T14:54:21.487Z,80.87
2023-01-05T14:55:33.400Z,80.87
2023-01-05T14:56:22.475Z,80.87
2023-01-05T14:57:21.447Z,80.26
2023-01-05T14:58:21.438Z,80.87
2023-01-05T14:59:21.426Z,80.87
2023-01-05T15:00:22.751Z,80.66
2023-01-05T15:01:21.411Z,80.36
2023-01-05T15:02:21.384Z,80.26
2023-01-05T15:03:21.437Z,80.26
2023-01-05T15:04:21.372Z,80.66
2023-01-05T15:05:21.363Z,80.66
2023-01-05T15:06:21.369Z,80.26
2023-01-05T15:07:21.346Z,80.56
2023-01-05T15:08:21.325Z,80.26
2023-01-05T15:09:21.320Z,81.07
2023-01-05T15:10:21.313Z,81.07
2023-01-05T15:11:21.313Z,81.07
2023-01-05T15:12:21.281Z,81.07
2023-01-05T15:13:21.310Z,81.27
2023-01-05T15:14:21.259Z,81.07
2023-01-05T15:15:21.253Z,81.17
2023-01-05T15:16:21.359Z,81.27
2023-01-05T15:17:21.231Z,81.21
2023-01-05T15:18:21.258Z,81.41
2023-01-05T15:19:21.191Z,81.38
2023-01-05T15:20:21.190Z,81.31
2023-01-05T15:21:21.197Z,81.31
2023-01-05T15:22:37.251Z,81.38
2023-01-05T15:23:22.159Z,81.41
2023-01-05T15:24:21.131Z,81.21
2023-01-05T15:25:21.138Z,81.62
2023-01-05T15:26:21.137Z,81.72
2023-01-05T15:27:21.122Z,81.72
2023-01-05T15:28:21.096Z,81.72
2023-01-05T15:29:21.093Z,82.09
2023-01-05T15:30:21.848Z,81.62
2023-01-05T15:31:21.114Z,82.54
2023-01-05T15:32:21.175Z,82.29
2023-01-05T15:33:21.049Z,82.33
2023-01-05T15:34:21.070Z,82.33
2023-01-05T15:35:21.038Z,81.82
2023-01-05T15:36:21.014Z,81.72
2023-01-05T15:37:20.999Z,81.82
2023-01-05T15:38:20.983Z,81.62
2023-01-05T15:39:20.997Z,82.33
2023-01-05T15:40:21.075Z,82.33
2023-01-05T15:41:20.978Z,82.29
2023-01-05T15:42:20.954Z,81.72
2023-01-05T15:43:20.918Z,81.93
2023-01-05T15:44:20.932Z,82.23
2023-01-05T15:45:20.894Z,82.23
2023-01-05T15:46:20.906Z,82.33
2023-01-05T15:47:20.916Z,81.52
2023-01-05T15:48:20.972Z,81.62
2023-01-05T15:49:20.861Z,81.82
2023-01-05T15:50:20.860Z,81.76
2023-01-05T15:51:20.827Z,81.72
2023-01-05T15:52:20.845Z,82.23
2023-01-05T15:53:20.805Z,81.96
2023-01-05T15:54:20.789Z,81.82
2023-01-05T15:55:20.801Z,82.37
2023-01-05T15:56:20.861Z,82.57
2023-01-05T15:57:20.783Z,82.37
2023-01-05T15:58:20.756Z,82.27
2023-01-05T15:59:20.747Z,82.17
2023-01-05T16:00:20.719Z,81.86
2023-01-05T16:01:20.872Z,82.57
2023-01-05T16:02:20.741Z,82.27
2023-01-05T16:03:20.706Z,82.78
2023-01-05T16:04:20.801Z,83.09
2023-01-05T16:05:20.665Z,83.09
2023-01-05T16:06:20.673Z,83.18
2023-01-05T16:07:20.659Z,83.90
2023-01-05T16:08:20.650Z,84.51
2023-01-05T16:09:20.636Z,84.20
2023-01-05T16:10:20.619Z,84.61
2023-01-05T16:11:20.612Z,84.82
2023-01-05T16:12:20.588Z,85.33
2023-01-05T16:13:20.609Z,85.63
2023-01-05T16:14:20.560Z,85.47
2023-01-05T16:15:20.573Z,85.68
2023-01-05T16:16:49.814Z,86.24
2023-01-05T16:17:21.682Z,86.59
2023-01-05T16:18:20.542Z,86.08
2023-01-05T16:19:20.525Z,86.69
2023-01-05T16:20:20.606Z,86.90
2023-01-05T16:21:20.510Z,86.94
2023-01-05T16:22:20.466Z,87.51
2023-01-05T16:23:20.495Z,88.57
2023-01-05T16:24:20.444Z,88.98
2023-01-05T16:25:20.458Z,89.39
2023-01-05T16:26:20.423Z,89.49
2023-01-05T16:27:20.431Z,89.39
2023-01-05T16:28:20.417Z,89.28
2023-01-05T16:29:20.411Z,89.18
2023-01-05T16:30:20.381Z,89.39
2023-01-05T16:31:20.385Z,90.25
2023-01-05T16:32:20.355Z,90.25
2023-01-05T16:33:20.376Z,90.45
2023-01-05T16:34:20.342Z,90.86
2023-01-05T16:35:20.335Z,91.27
2023-01-05T16:36:20.434Z,90.96
2023-01-05T16:37:21.096Z,92.02
2023-01-05T16:38:20.303Z,91.92
2023-01-05T16:39:20.305Z,92.29
2023-01-05T16:40:20.300Z,92.39
2023-01-05T16:41:20.283Z,92.74
2023-01-05T16:42:20.242Z,92.64
2023-01-05T16:43:20.236Z,93.05
2023-01-05T16:44:20.238Z,93.15
2023-01-05T16:45:20.239Z,93.45
2023-01-05T16:46:21.254Z,93.05
2023-01-05T16:47:20.207Z,93.35
2023-01-05T16:48:20.175Z,92.13
2023-01-05T16:49:20.201Z,92.84
2023-01-05T16:50:20.154Z,92.54
2023-01-05T16:51:20.162Z,92.43
2023-01-05T16:52:24.243Z,92.64
2023-01-05T16:53:21.133Z,92.90
2023-01-05T16:54:21.986Z,93.05
2023-01-05T16:55:27.140Z,92.54
2023-01-05T16:56:21.094Z,92.64
2023-01-05T16:57:20.077Z,93.25
2023-01-05T16:58:20.093Z,93.35
2023-01-05T16:59:20.091Z,93.05
2023-01-05T17:00:20.042Z,93.05
2023-01-05T17:01:20.060Z,93.35
2023-01-05T17:02:20.037Z,92.94
2023-01-05T17:03:20.015Z,93.25
2023-01-05T17:04:20.061Z,93.15
2023-01-05T17:05:19.987Z,93.66
2023-01-05T17:06:19.987Z,93.35
2023-01-05T17:07:20.136Z,93.55
2023-01-05T17:08:20.074Z,93.10
2023-01-05T17:09:19.970Z,93.66
2023-01-05T17:10:19.928Z,93.55
2023-01-05T17:11:19.934Z,94.07
2023-01-05T17:12:19.987Z,94.17
2023-01-05T17:13:20.930Z,94.73
2023-01-05T17:14:19.895Z,94.42
2023-01-05T17:15:19.885Z,94.52
2023-01-05T17:16:19.997Z,94.93
2023-01-05T17:18:19.851Z,95.75
2023-01-05T17:19:19.862Z,95.59
2023-01-05T17:20:19.835Z,95.54
2023-01-05T17:21:19.805Z,95.13
2023-01-05T17:22:19.811Z,95.03
2023-01-05T17:23:19.796Z,94.93
2023-01-05T17:24:19.897Z,95.69
2023-01-05T17:25:19.781Z,94.93
2023-01-05T17:26:19.746Z,94.97
2023-01-05T17:27:19.732Z,95.69
2023-01-05T17:28:19.742Z,95.48
2023-01-05T17:29:19.758Z,95.59
2023-01-05T17:30:19.725Z,95.48
2023-01-05T17:31:19.709Z,95.89
2023-01-05T17:32:19.709Z,95.48
2023-01-05T17:33:19.671Z,96.34
2023-01-05T17:34:19.695Z,96.10
2023-01-05T17:35:20.129Z,96.10
2023-01-05T17:36:19.639Z,95.59
2023-01-05T17:37:19.620Z,95.89
2023-01-05T17:38:19.643Z,96.20
2023-01-05T17:39:19.621Z,96.61
2023-01-05T17:40:19.795Z,96.55
2023-01-05T17:41:19.574Z,96.45
2023-01-05T17:42:22.546Z,96.41
2023-01-05T17:43:19.577Z,96.51
2023-01-05T17:44:19.577Z,96.25
2023-01-05T17:45:19.540Z,96.30
2023-01-05T17:46:19.572Z,96.30
2023-01-05T17:47:19.541Z,96.51
2023-01-05T17:48:19.515Z,96.92
2023-01-05T17:49:19.504Z,96.45
2023-01-05T17:50:19.489Z,96.61
2023-01-05T17:51:19.474Z,96.30
2023-01-05T17:52:19.455Z,96.30
2023-01-05T17:53:19.457Z,96.92
2023-01-05T17:54:19.446Z,96.30
2023-01-05T17:55:19.421Z,96.10
2023-01-05T17:56:20.828Z,96.51
2023-01-05T17:57:19.413Z,96.81
2023-01-05T17:58:19.409Z,96.20
2023-01-05T17:59:19.401Z,96.34
2023-01-05T18:00:21.840Z,96.20
2023-01-05T18:01:19.404Z,96.34
2023-01-05T18:02:19.408Z,96.51
2023-01-05T18:03:19.340Z,96.41
2023-01-05T18:04:19.349Z,96.34
2023-01-05T18:05:19.305Z,96.96
2023-01-05T18:06:19.311Z,96.20
2023-01-05T18:07:19.311Z,96.66
2023-01-05T18:08:19.282Z,96.20
2023-01-05T18:09:19.299Z,96.61
2023-01-05T18:10:19.264Z,96.51
2023-01-05T18:11:19.237Z,96.10
2023-01-05T18:12:19.359Z,96.20
2023-01-05T18:13:21.529Z,96.41
2023-01-05T18:14:19.217Z,96.71
2023-01-05T18:15:19.218Z,96.10
2023-01-05T18:16:19.200Z,96.71
2023-01-05T18:17:19.168Z,96.61
2023-01-05T18:18:19.173Z,96.41
2023-01-05T18:19:19.183Z,96.30
2023-01-05T18:20:21.189Z,96.61
2023-01-05T18:21:19.136Z,96.20
2023-01-05T18:22:19.139Z,96.61
2023-01-05T18:23:19.116Z,96.61
2023-01-05T18:24:19.129Z,96.20
2023-01-05T18:25:19.097Z,95.95
2023-01-05T18:26:19.069Z,95.89
2023-01-05T18:27:19.070Z,96.10
2023-01-05T18:28:19.218Z,95.79
2023-01-05T18:29:19.068Z,96.10
2023-01-05T18:30:19.039Z,96.30
2023-01-05T18:31:19.029Z,96.30
2023-01-05T18:32:19.007Z,95.89
2023-01-05T18:33:19.008Z,96.41
2023-01-05T18:34:19.013Z,95.89
2023-01-05T18:35:19.003Z,95.79
2023-01-05T18:36:18.985Z,95.79
2023-01-05T18:37:22.294Z,96.00
2023-01-05T18:38:18.953Z,96.81
2023-01-05T18:39:18.946Z,95.89
2023-01-05T18:40:18.965Z,95.79
2023-01-05T18:41:18.909Z,96.71
2023-01-05T18:42:18.905Z,96.45
2023-01-05T18:43:18.887Z,96.75
2023-01-05T18:44:19.014Z,96.41
2023-01-05T18:45:26.043Z,96.20
2023-01-05T18:46:19.914Z,96.61
2023-01-05T18:47:18.840Z,96.41
2023-01-05T18:48:18.838Z,96.61
2023-01-05T18:49:18.847Z,96.61
2023-01-05T18:50:18.801Z,96.66
2023-01-05T18:51:18.794Z,96.41
2023-01-05T18:52:18.793Z,96.66
2023-01-05T18:53:18.776Z,96.34
2023-01-05T18:54:18.778Z,96.45
2023-01-05T18:55:18.751Z,96.30
2023-01-05T18:56:18.746Z,96.41
2023-01-05T18:57:18.732Z,96.55
2023-01-05T18:58:18.719Z,96.86
2023-01-05T18:59:18.715Z,96.66
2023-01-05T19:00:18.814Z,96.75
2023-01-05T19:01:18.809Z,96.45
2023-01-05T19:02:18.687Z,96.20
2023-01-05T19:03:18.644Z,96.41
2023-01-05T19:04:18.682Z,96.41
2023-01-05T19:05:18.637Z,96.34
2023-01-05T19:06:18.629Z,96.61
2023-01-05T19:07:18.601Z,96.75
2023-01-05T19:08:18.596Z,96.71
2023-01-05T19:09:18.617Z,96.66
2023-01-05T19:10:18.601Z,96.86
2023-01-05T19:11:18.554Z,97.74
2023-01-05T19:12:18.567Z,97.12
2023-01-05T19:13:18.563Z,97.06
2023-01-05T19:14:18.539Z,97.42
2023-01-05T19:15:18.509Z,97.12
2023-01-05T19:16:18.716Z,97.88
2023-01-05T19:17:18.502Z,96.96
2023-01-05T19:18:18.497Z,97.88
2023-01-05T19:19:18.497Z,97.74
2023-01-05T19:20:18.456Z,97.06
2023-01-05T19:21:18.444Z,97.06
2023-01-05T19:22:18.452Z,96.81
2023-01-05T19:23:18.440Z,97.06
2023-01-05T19:24:18.428Z,96.81
2023-01-05T19:25:18.426Z,96.71
2023-01-05T19:26:18.403Z,96.61
2023-01-05T19:27:18.374Z,96.51
2023-01-05T19:28:18.385Z,96.55
2023-01-05T19:29:18.387Z,96.96
2023-01-05T19:30:18.357Z,96.66
2023-01-05T19:31:18.409Z,96.66
2023-01-05T19:32:18.437Z,96.75
2023-01-05T19:33:18.340Z,97.16
2023-01-05T19:34:18.630Z,96.75
2023-01-05T19:35:18.284Z,96.86
2023-01-05T19:36:18.276Z,96.96
2023-01-05T19:37:18.259Z,97.06
2023-01-05T19:38:18.251Z,97.67
2023-01-05T19:39:18.276Z,97.57
2023-01-05T19:40:18.248Z,97.88
2023-01-05T19:41:18.219Z,97.67
2023-01-05T19:42:18.222Z,97.57
2023-01-05T19:43:18.206Z,97.47
2023-01-05T19:44:18.208Z,97.37
2023-01-05T19:45:18.185Z,97.37
2023-01-05T19:46:18.205Z,97.57
2023-01-05T19:47:18.144Z,97.78
2023-01-05T19:48:18.285Z,97.78
2023-01-05T19:49:18.142Z,97.57
2023-01-05T19:50:18.143Z,97.33
2023-01-05T19:51:18.102Z,97.67
2023-01-05T19:52:18.115Z,97.47
2023-01-05T19:53:18.100Z,97.88
2023-01-05T19:54:18.118Z,97.27
2023-01-05T19:55:18.069Z,97.57
2023-01-05T19:56:18.071Z,97.67
2023-01-05T19:57:18.048Z,97.57
2023-01-05T19:58:18.029Z,97.57
2023-01-05T19:59:18.053Z,97.47
